createdAt,value
2022-10-31T00:00:32.285Z,20.70
2022-10-31T00:02:58.971Z,18.08
2022-10-31T00:05:25.610Z,17.67
2022-10-31T00:07:55.118Z,20.02
2022-10-31T00:10:21.505Z,17.98
2022-10-31T00:12:47.911Z,20.95
2022-10-31T00:15:14.304Z,23.25
2022-10-31T00:17:40.695Z,25.17
2022-10-31T00:20:25.672Z,19.70
2022-10-31T00:22:52.058Z,22.33
2022-10-31T00:25:18.464Z,22.90
2022-10-31T00:27:44.854Z,22.02
2022-10-31T00:30:11.565Z,21.63
2022-10-31T00:32:37.962Z,22.00
2022-10-31T00:35:04.674Z,25.30
2022-10-31T00:37:31.074Z,20.30
2022-10-31T00:39:57.544Z,20.98
2022-10-31T00:42:23.986Z,25.77
2022-10-31T00:44:50.360Z,19.65
2022-10-31T00:47:16.772Z,28.17
2022-10-31T00:49:43.165Z,23.08
2022-10-31T00:52:10.179Z,26.75
2022-10-31T00:54:37.291Z,20.55
2022-10-31T00:57:03.944Z,21.02
2022-10-31T00:59:30.579Z,18.53
2022-10-31T01:01:57.174Z,19.40
2022-10-31T01:04:23.745Z,20.77
2022-10-31T01:06:50.134Z,23.25
2022-10-31T01:09:16.770Z,23.50
2022-10-31T01:11:43.234Z,23.83
2022-10-31T01:14:10.524Z,21.50
2022-10-31T01:16:36.913Z,20.13
2022-10-31T01:19:03.956Z,18.17
2022-10-31T01:21:30.587Z,19.75
2022-10-31T01:24:00.602Z,17.27
2022-10-31T01:26:30.058Z,20.98
2022-10-31T01:28:59.506Z,21.17
2022-10-31T01:31:30.257Z,18.15
2022-10-31T01:33:57.285Z,21.08
2022-10-31T01:36:29.940Z,19.52
2022-10-31T01:38:58.617Z,19.85
2022-10-31T01:41:27.921Z,21.77
2022-10-31T01:43:57.808Z,18.73
2022-10-31T01:46:54.772Z,16.73
2022-10-31T01:49:54.851Z,23.38
2022-10-31T01:52:27.467Z,18.63
2022-10-31T01:55:00.670Z,20.05
2022-10-31T01:57:28.130Z,28.48
2022-10-31T01:59:59.236Z,21.70
2022-10-31T02:02:28.515Z,22.27
2022-10-31T02:04:55.524Z,21.50
2022-10-31T02:07:27.629Z,26.42
2022-10-31T02:09:58.596Z,21.75
2022-10-31T02:12:26.062Z,22.85
2022-10-31T02:15:00.294Z,24.73
2022-10-31T02:17:27.274Z,16.90
2022-10-31T02:20:05.822Z,19.73
2022-10-31T02:22:49.440Z,22.17
2022-10-31T02:25:57.233Z,24.00
2022-10-31T02:28:34.133Z,27.10
2022-10-31T02:31:26.377Z,20.80
2022-10-31T02:33:58.475Z,18.27
2022-10-31T02:36:31.144Z,18.38
2022-10-31T02:39:11.574Z,25.35
2022-10-31T02:42:18.297Z,35.92
2022-10-31T02:45:06.306Z,18.38
2022-10-31T02:47:39.584Z,19.65
2022-10-31T02:50:11.649Z,18.40
2022-10-31T02:52:39.195Z,20.73
2022-10-31T02:55:23.990Z,20.73
2022-10-31T02:57:57.579Z,18.77
2022-10-31T03:00:24.301Z,16.80
2022-10-31T03:03:08.645Z,19.38
2022-10-31T03:05:53.784Z,19.13
2022-10-31T03:08:35.566Z,20.35
2022-10-31T03:11:06.012Z,24.50
2022-10-31T03:13:48.229Z,19.95
2022-10-31T03:16:38.082Z,19.42
2022-10-31T03:19:21.368Z,20.45
2022-10-31T03:21:53.677Z,16.85
2022-10-31T03:24:24.696Z,21.63
2022-10-31T03:26:55.665Z,22.02
2022-10-31T03:29:27.348Z,22.90
2022-10-31T03:31:58.297Z,24.42
2022-10-31T03:34:24.950Z,18.55
2022-10-31T03:36:54.530Z,20.40
2022-10-31T03:39:23.728Z,20.48
2022-10-31T03:41:57.201Z,19.27
2022-10-31T03:44:27.970Z,19.15
2022-10-31T03:47:00.562Z,16.13
2022-10-31T03:49:28.151Z,19.02
2022-10-31T03:52:10.467Z,20.77
2022-10-31T03:54:46.116Z,14.68
2022-10-31T03:57:37.000Z,16.35
2022-10-31T04:00:08.975Z,26.80
2022-10-31T04:03:10.852Z,16.65
2022-10-31T04:05:40.057Z,20.55
2022-10-31T04:08:12.900Z,25.42
2022-10-31T04:10:41.899Z,22.25
2022-10-31T04:13:13.224Z,18.63
2022-10-31T04:15:46.789Z,19.10
2022-10-31T04:18:13.506Z,18.23
2022-10-31T04:20:42.340Z,17.05
2022-10-31T04:23:23.393Z,17.67
2022-10-31T04:25:50.896Z,18.98
2022-10-31T04:30:50.198Z,14.68
2022-10-31T04:33:17.178Z,15.48
2022-10-31T04:35:45.891Z,15.30
2022-10-31T04:38:12.310Z,18.02
2022-10-31T04:40:39.733Z,18.25
2022-10-31T04:43:24.828Z,22.60
2022-10-31T04:45:51.472Z,20.73
2022-10-31T04:48:18.996Z,22.10
2022-10-31T04:50:45.460Z,22.05
2022-10-31T04:53:13.361Z,30.83
2022-10-31T04:56:01.502Z,31.92
2022-10-31T04:58:35.850Z,25.50
2022-10-31T05:01:04.554Z,30.02
2022-10-31T05:03:32.853Z,35.88
2022-10-31T05:06:24.516Z,23.17
2022-10-31T05:08:51.520Z,24.83
2022-10-31T05:11:17.988Z,26.58
2022-10-31T05:13:44.651Z,25.27
2022-10-31T05:16:11.048Z,28.15
2022-10-31T05:19:09.264Z,29.73
2022-10-31T05:21:54.168Z,22.63
2022-10-31T05:24:22.632Z,19.60
2022-10-31T05:26:49.956Z,13.95
2022-10-31T05:29:16.542Z,18.20
2022-10-31T05:31:43.955Z,23.77
2022-10-31T05:34:21.055Z,17.65
2022-10-31T05:37:10.118Z,24.80
2022-10-31T05:39:37.155Z,24.75
2022-10-31T05:42:12.073Z,21.40
2022-10-31T05:44:38.500Z,27.20
2022-10-31T05:47:14.094Z,15.80
2022-10-31T05:49:55.446Z,30.25
2022-10-31T05:52:40.745Z,28.05
2022-10-31T05:55:17.108Z,23.10
2022-10-31T05:57:58.312Z,23.70
2022-10-31T06:00:26.670Z,24.77
2022-10-31T06:03:00.363Z,22.70
2022-10-31T06:05:39.089Z,23.17
2022-10-31T06:08:05.952Z,26.45
2022-10-31T06:10:32.396Z,24.52
2022-10-31T06:12:58.924Z,22.33
2022-10-31T06:15:38.837Z,24.77
2022-10-31T06:18:07.487Z,27.48
2022-10-31T06:20:37.276Z,22.85
2022-10-31T06:23:05.420Z,20.65
2022-10-31T06:25:33.995Z,19.35
2022-10-31T06:28:00.809Z,30.70
2022-10-31T06:30:36.233Z,18.13
2022-10-31T06:33:04.815Z,30.77
2022-10-31T06:35:32.571Z,30.58
2022-10-31T06:38:00.659Z,19.60
2022-10-31T06:40:33.788Z,18.77
2022-10-31T06:43:17.519Z,19.60
2022-10-31T06:45:47.528Z,21.55
2022-10-31T06:48:26.507Z,26.08
2022-10-31T06:51:16.469Z,30.05
2022-10-31T06:53:42.877Z,39.92
2022-10-31T06:56:11.379Z,36.00
2022-10-31T06:58:43.098Z,40.42
2022-10-31T07:01:11.551Z,30.55
2022-10-31T07:03:39.123Z,38.58
2022-10-31T07:06:06.314Z,41.15
2022-10-31T07:08:33.361Z,37.47
2022-10-31T07:10:59.789Z,39.03
2022-10-31T07:13:28.454Z,46.00
2022-10-31T07:16:07.529Z,33.75
2022-10-31T07:18:35.767Z,41.83
2022-10-31T07:21:02.495Z,48.92
2022-10-31T07:23:28.956Z,34.55
2022-10-31T07:26:13.870Z,40.80
2022-10-31T07:28:46.871Z,37.80
2022-10-31T07:31:13.757Z,41.70
2022-10-31T07:33:40.512Z,49.28
2022-10-31T07:36:38.809Z,42.72
2022-10-31T07:39:05.217Z,50.60
2022-10-31T07:41:34.503Z,39.40
2022-10-31T07:44:00.932Z,36.53
2022-10-31T07:46:30.025Z,43.13
2022-10-31T07:49:15.115Z,40.85
2022-10-31T07:52:01.492Z,41.65
2022-10-31T07:54:27.856Z,35.40
2022-10-31T07:56:54.241Z,40.90
2022-10-31T07:59:20.731Z,37.47
2022-10-31T08:01:48.368Z,37.97
2022-10-31T08:04:46.625Z,38.92
2022-10-31T08:10:17.090Z,41.67
2022-10-31T08:12:43.494Z,43.47
2022-10-31T08:15:10.487Z,41.17
2022-10-31T08:17:37.869Z,41.80
2022-10-31T08:20:07.534Z,45.28
2022-10-31T08:22:42.725Z,38.42
2022-10-31T08:25:10.170Z,38.72
2022-10-31T08:27:37.261Z,35.70
2022-10-31T08:30:04.054Z,41.85
2022-10-31T08:33:13.981Z,36.55
2022-10-31T08:35:59.693Z,48.30
2022-10-31T08:38:48.096Z,47.15
2022-10-31T08:41:15.020Z,45.65
2022-10-31T08:43:41.728Z,43.70
2022-10-31T08:46:08.142Z,43.63
2022-10-31T08:48:34.910Z,40.67
2022-10-31T08:51:03.489Z,45.53
2022-10-31T08:53:30.616Z,47.95
2022-10-31T08:56:18.997Z,46.00
2022-10-31T08:58:45.641Z,49.08
2022-10-31T09:01:12.518Z,48.67
2022-10-31T09:03:39.024Z,56.90
2022-10-31T09:06:09.634Z,52.42
2022-10-31T09:08:37.354Z,46.88
2022-10-31T09:11:04.894Z,56.97
2022-10-31T09:13:59.999Z,51.92
2022-10-31T09:16:44.777Z,51.03
2022-10-31T09:19:17.934Z,48.70
2022-10-31T09:21:46.386Z,51.80
2022-10-31T09:24:12.762Z,48.35
2022-10-31T09:26:41.710Z,50.33
2022-10-31T09:29:15.162Z,50.20
2022-10-31T09:31:45.075Z,56.83
2022-10-31T09:34:26.639Z,52.42
2022-10-31T09:37:05.151Z,55.65
2022-10-31T09:39:34.452Z,49.72
2022-10-31T09:42:32.381Z,52.90
2022-10-31T09:45:24.236Z,59.42
2022-10-31T09:48:05.756Z,44.15
2022-10-31T09:50:43.885Z,50.20
2022-10-31T09:53:40.604Z,54.17
2022-10-31T09:56:18.676Z,42.22
2022-10-31T09:58:48.525Z,51.90
2022-10-31T10:01:31.358Z,51.78
2022-10-31T10:04:20.859Z,51.95
2022-10-31T10:07:12.715Z,53.42
2022-10-31T10:10:02.836Z,51.00
2022-10-31T10:13:13.779Z,51.90
2022-10-31T10:16:07.701Z,52.40
2022-10-31T10:18:47.082Z,47.05
2022-10-31T10:21:45.576Z,52.60
2022-10-31T10:24:11.901Z,56.67
2022-10-31T10:26:43.852Z,55.38
2022-10-31T10:29:34.514Z,54.55
2022-10-31T10:32:07.169Z,55.17
2022-10-31T10:34:42.678Z,58.92
2022-10-31T10:37:33.811Z,54.67
2022-10-31T10:43:19.635Z,59.03
2022-10-31T10:46:11.815Z,61.00
2022-10-31T10:48:45.454Z,52.65
2022-10-31T10:54:43.829Z,56.10
2022-10-31T10:57:22.918Z,62.08
2022-10-31T10:59:50.155Z,61.92
2022-10-31T11:02:25.650Z,56.97
2022-10-31T11:04:54.983Z,66.53
2022-10-31T11:07:21.993Z,55.05
2022-10-31T11:09:48.592Z,65.53
2022-10-31T11:12:32.168Z,69.65
2022-10-31T11:15:01.303Z,70.55
2022-10-31T11:17:32.142Z,66.97
2022-10-31T11:20:16.278Z,61.00
2022-10-31T11:22:48.005Z,70.13
2022-10-31T11:25:20.364Z,64.38
2022-10-31T11:27:47.452Z,62.78
2022-10-31T11:30:15.246Z,65.82
2022-10-31T11:32:50.090Z,75.10
2022-10-31T11:35:19.487Z,67.80
2022-10-31T11:37:49.090Z,72.40
2022-10-31T11:40:18.948Z,75.35
2022-10-31T11:42:46.353Z,78.82
2022-10-31T11:45:28.477Z,71.32
2022-10-31T11:47:59.897Z,69.68
2022-10-31T11:50:33.900Z,82.85
2022-10-31T11:53:01.200Z,70.68
2022-10-31T11:55:34.973Z,81.78
2022-10-31T11:58:02.031Z,73.78
2022-10-31T12:00:31.197Z,84.78
2022-10-31T12:03:27.512Z,77.57
2022-10-31T12:06:02.204Z,77.57
2022-10-31T12:08:34.548Z,77.80
2022-10-31T12:11:13.038Z,86.93
2022-10-31T12:14:03.864Z,78.18
2022-10-31T12:16:51.341Z,85.00
2022-10-31T12:19:37.220Z,88.35
2022-10-31T12:22:46.126Z,84.30
2022-10-31T12:25:18.472Z,81.63
2022-10-31T12:28:12.156Z,78.57
2022-10-31T12:31:03.284Z,88.70
2022-10-31T12:36:40.829Z,86.95
2022-10-31T12:39:19.404Z,85.82
2022-10-31T12:41:47.367Z,87.07
2022-10-31T12:44:33.887Z,95.55
2022-10-31T12:47:26.772Z,87.20
2022-10-31T12:50:23.812Z,87.13
2022-10-31T12:53:02.517Z,91.65
2022-10-31T12:55:44.056Z,91.20
2022-10-31T12:58:22.677Z,84.32
2022-10-31T13:00:58.043Z,86.70
2022-10-31T13:03:36.578Z,88.35
2022-10-31T13:06:08.950Z,80.25
2022-10-31T13:08:42.154Z,78.50
2022-10-31T13:11:17.504Z,90.10
2022-10-31T13:13:52.989Z,90.05
2022-10-31T13:16:35.506Z,84.28
2022-10-31T13:19:18.359Z,85.72
2022-10-31T13:22:03.932Z,82.07
2022-10-31T13:24:42.920Z,82.80
2022-10-31T13:27:30.488Z,78.47
2022-10-31T13:30:17.097Z,70.60
2022-10-31T13:33:00.528Z,81.90
2022-10-31T13:35:27.043Z,77.70
2022-10-31T13:38:17.584Z,73.63
2022-10-31T13:40:53.827Z,76.00
2022-10-31T13:43:31.285Z,77.22
2022-10-31T13:45:57.690Z,88.53
2022-10-31T13:48:40.132Z,89.25
2022-10-31T13:51:11.505Z,91.57
2022-10-31T13:53:46.305Z,97.72
2022-10-31T13:56:25.606Z,84.35
2022-10-31T13:59:01.020Z,80.05
2022-10-31T14:01:29.980Z,90.15
2022-10-31T14:04:12.718Z,84.97
2022-10-31T14:06:43.222Z,89.05
2022-10-31T14:09:24.602Z,82.63
2022-10-31T14:11:51.921Z,95.57
2022-10-31T14:14:20.257Z,99.93
2022-10-31T14:16:55.634Z,98.03
2022-10-31T14:19:23.018Z,104.65
2022-10-31T14:21:51.253Z,100.72
2022-10-31T14:24:23.478Z,95.05
2022-10-31T14:27:04.545Z,98.38
2022-10-31T14:32:13.726Z,83.32
2022-10-31T14:34:51.496Z,82.30
2022-10-31T14:37:56.262Z,86.38
2022-10-31T14:40:32.685Z,90.25
2022-10-31T14:43:25.858Z,90.10
2022-10-31T14:46:08.005Z,87.13
2022-10-31T14:49:00.443Z,90.18
2022-10-31T14:51:40.539Z,101.85
2022-10-31T14:54:14.152Z,95.63
2022-10-31T14:56:49.244Z,98.20
2022-10-31T14:59:19.562Z,107.97
2022-10-31T15:01:57.706Z,93.15
2022-10-31T15:04:27.001Z,92.45
2022-10-31T15:07:05.212Z,98.07
2022-10-31T15:09:34.351Z,90.85
2022-10-31T15:12:01.930Z,92.47
2022-10-31T15:14:31.282Z,88.60
2022-10-31T15:16:59.138Z,87.25
2022-10-31T15:19:29.103Z,93.85
2022-10-31T15:21:57.889Z,79.75
2022-10-31T15:24:31.283Z,83.20
2022-10-31T15:27:03.809Z,78.43
2022-10-31T15:29:32.173Z,83.78
2022-10-31T15:32:02.566Z,75.43
2022-10-31T15:34:38.985Z,78.13
2022-10-31T15:37:10.149Z,85.40
2022-10-31T15:39:36.558Z,90.57
2022-10-31T15:42:03.016Z,88.35
2022-10-31T15:44:35.973Z,82.60
2022-10-31T15:47:06.203Z,93.32
2022-10-31T15:49:42.973Z,92.75
2022-10-31T15:52:18.194Z,87.05
2022-10-31T15:54:48.702Z,87.03
2022-10-31T15:57:15.467Z,95.68
2022-10-31T15:59:49.653Z,90.97
2022-10-31T16:02:21.859Z,100.05
2022-10-31T16:04:51.420Z,97.65
2022-10-31T16:07:23.143Z,95.60
2022-10-31T16:09:54.394Z,96.38
2022-10-31T16:12:22.899Z,104.30
2022-10-31T16:14:51.415Z,92.95
2022-10-31T16:17:22.105Z,79.80
2022-10-31T16:20:06.613Z,86.97
2022-10-31T16:22:37.421Z,82.32
2022-10-31T16:25:27.227Z,87.53
2022-10-31T16:27:56.339Z,84.82
2022-10-31T16:30:26.289Z,83.00
2022-10-31T16:33:02.533Z,86.45
2022-10-31T16:35:39.623Z,96.78
2022-10-31T16:38:06.402Z,90.82
2022-10-31T16:40:33.849Z,136.55
2022-10-31T16:43:01.378Z,95.13
2022-10-31T16:45:32.119Z,104.68
2022-10-31T16:48:07.471Z,127.13
2022-10-31T16:50:34.059Z,94.90
2022-10-31T16:53:13.346Z,118.30
2022-10-31T16:55:47.149Z,137.52
2022-10-31T16:58:18.049Z,107.57
2022-10-31T17:03:11.514Z,98.88
2022-10-31T17:05:39.462Z,115.88
2022-10-31T17:08:06.058Z,129.45
2022-10-31T17:10:32.801Z,127.35
2022-10-31T17:13:00.638Z,116.43
2022-10-31T17:15:28.904Z,118.22
2022-10-31T17:17:55.622Z,98.85
2022-10-31T17:20:27.911Z,93.82
2022-10-31T17:22:55.077Z,95.55
2022-10-31T17:25:23.962Z,107.15
2022-10-31T17:27:51.381Z,82.97
2022-10-31T17:30:19.422Z,92.32
2022-10-31T17:32:46.993Z,146.23
2022-10-31T17:35:14.909Z,104.10
2022-10-31T17:37:42.896Z,88.50
2022-10-31T17:40:10.806Z,98.00
2022-10-31T17:42:38.501Z,91.15
2022-10-31T17:45:06.695Z,104.53
2022-10-31T17:47:33.714Z,91.55
2022-10-31T17:50:00.310Z,107.60
2022-10-31T17:52:26.845Z,131.32
2022-10-31T17:54:53.256Z,125.05
2022-10-31T17:57:19.682Z,108.80
2022-10-31T17:59:46.074Z,113.60
2022-10-31T18:02:12.666Z,118.32
2022-10-31T18:04:40.911Z,111.13
2022-10-31T18:07:07.924Z,99.47
2022-10-31T18:09:34.723Z,91.38
2022-10-31T18:12:01.105Z,105.20
2022-10-31T18:14:29.363Z,108.15
2022-10-31T18:16:55.757Z,105.47
2022-10-31T18:19:22.189Z,166.65
2022-10-31T18:21:48.577Z,128.10
2022-10-31T18:24:15.001Z,129.73
2022-10-31T18:26:41.376Z,111.05
2022-10-31T18:29:07.837Z,113.82
2022-10-31T18:31:34.218Z,122.90
2022-10-31T18:34:00.642Z,116.47
2022-10-31T18:36:27.225Z,105.28
2022-10-31T18:38:53.661Z,115.88
2022-10-31T18:41:20.379Z,107.90
2022-10-31T18:43:46.978Z,169.63
2022-10-31T18:46:15.375Z,169.25
2022-10-31T18:48:43.208Z,188.40
2022-10-31T18:51:11.336Z,169.93
2022-10-31T18:53:37.976Z,120.93
2022-10-31T18:56:08.994Z,128.05
2022-10-31T19:01:12.900Z,117.18
2022-10-31T19:03:40.493Z,127.28
2022-10-31T19:06:08.157Z,171.80
2022-10-31T19:08:34.671Z,181.55
2022-10-31T19:11:07.008Z,265.02
2022-10-31T19:13:34.518Z,180.15
2022-10-31T19:16:12.082Z,124.68
2022-10-31T19:18:39.627Z,161.48
2022-10-31T19:21:11.832Z,123.28
2022-10-31T19:23:38.830Z,125.50
2022-10-31T19:26:05.517Z,125.32
2022-10-31T19:28:33.544Z,128.75
2022-10-31T19:31:00.163Z,135.05
2022-10-31T19:33:33.395Z,125.32
2022-10-31T19:36:11.367Z,164.13
2022-10-31T19:38:42.932Z,189.13
2022-10-31T19:41:16.018Z,229.80
2022-10-31T19:43:43.027Z,144.10
2022-10-31T19:46:22.475Z,179.32
2022-10-31T19:48:54.665Z,226.48
2022-10-31T19:51:21.881Z,174.27
2022-10-31T19:53:49.729Z,148.93
2022-10-31T19:56:21.448Z,203.25
2022-10-31T19:58:48.527Z,187.70
2022-10-31T20:01:20.385Z,173.38
2022-10-31T20:03:47.427Z,221.30
2022-10-31T20:06:32.175Z,156.77
2022-10-31T20:09:00.660Z,160.43
2022-10-31T20:11:28.531Z,201.55
2022-10-31T20:13:56.370Z,152.90
2022-10-31T20:16:23.699Z,165.43
2022-10-31T20:18:50.136Z,172.05
2022-10-31T20:21:19.921Z,225.20
2022-10-31T20:23:47.525Z,143.35
2022-10-31T20:26:17.102Z,129.68
2022-10-31T20:28:43.869Z,143.15
2022-10-31T20:31:13.436Z,134.77
2022-10-31T20:33:39.880Z,133.57
2022-10-31T20:36:07.990Z,175.13
2022-10-31T20:38:37.002Z,148.63
2022-10-31T20:41:05.122Z,132.73
2022-10-31T20:43:33.312Z,214.55
2022-10-31T20:46:05.329Z,148.13
2022-10-31T20:48:32.243Z,132.55
2022-10-31T20:51:07.150Z,143.40
2022-10-31T20:53:34.197Z,117.25
2022-10-31T20:56:07.240Z,133.35
2022-10-31T20:58:35.036Z,110.32
2022-10-31T21:01:01.752Z,109.30
2022-10-31T21:03:28.207Z,98.55
2022-10-31T21:06:00.075Z,109.22
2022-10-31T21:08:28.455Z,119.40
2022-10-31T21:10:55.365Z,113.05
2022-10-31T21:13:22.110Z,106.40
2022-10-31T21:15:48.793Z,120.90
2022-10-31T21:18:15.207Z,102.43
2022-10-31T21:20:43.922Z,153.93
2022-10-31T21:23:11.666Z,106.50
2022-10-31T21:25:42.308Z,121.70
2022-10-31T21:28:10.610Z,114.47
2022-10-31T21:30:42.083Z,103.85
2022-10-31T21:33:08.649Z,132.40
2022-10-31T21:35:35.397Z,152.55
2022-10-31T21:38:02.306Z,120.00
2022-10-31T21:40:29.157Z,127.57
2022-10-31T21:42:56.489Z,145.52
2022-10-31T21:45:23.210Z,169.15
2022-10-31T21:47:50.282Z,147.68
2022-10-31T21:50:17.582Z,148.32
2022-10-31T21:52:44.174Z,142.63
2022-10-31T21:55:10.596Z,158.77
2022-10-31T21:57:37.110Z,112.57
2022-10-31T22:00:08.925Z,127.90
2022-10-31T22:02:36.472Z,133.93
2022-10-31T22:05:03.824Z,111.32
2022-10-31T22:07:31.973Z,95.90
2022-10-31T22:09:58.361Z,93.50
2022-10-31T22:12:25.243Z,86.45
2022-10-31T22:14:51.809Z,84.70
2022-10-31T22:17:18.204Z,79.13
2022-10-31T22:19:44.591Z,96.05
2022-10-31T22:22:12.165Z,169.98
2022-10-31T22:24:38.598Z,81.82
2022-10-31T22:27:05.093Z,172.35
2022-10-31T22:29:31.479Z,93.80
2022-10-31T22:31:59.725Z,239.68
2022-10-31T22:34:28.113Z,77.72
2022-10-31T22:36:55.207Z,101.95
2022-10-31T22:39:21.609Z,140.57
2022-10-31T22:41:48.020Z,104.22
2022-10-31T22:44:14.414Z,78.65
2022-10-31T22:46:40.847Z,82.43
2022-10-31T22:49:11.861Z,91.80
2022-10-31T22:54:09.381Z,98.90
2022-10-31T22:56:35.944Z,105.85
2022-10-31T22:59:02.965Z,113.07
2022-10-31T23:01:32.244Z,113.38
2022-10-31T23:03:59.045Z,107.57
2022-10-31T23:06:28.095Z,115.45
2022-10-31T23:08:55.299Z,117.07
2022-10-31T23:11:25.184Z,115.53
2022-10-31T23:14:09.652Z,110.85
2022-10-31T23:16:37.839Z,116.53
2022-10-31T23:19:07.875Z,117.60
2022-10-31T23:21:54.866Z,106.43
2022-10-31T23:24:31.757Z,117.00
2022-10-31T23:27:06.117Z,111.50
2022-10-31T23:29:44.107Z,110.35
2022-10-31T23:32:20.999Z,112.05
2022-10-31T23:34:49.203Z,117.28
2022-10-31T23:37:16.834Z,115.78
2022-10-31T23:39:43.242Z,112.63
2022-10-31T23:42:10.106Z,120.28
2022-10-31T23:44:36.593Z,117.05
2022-10-31T23:47:03.421Z,102.50
2022-10-31T23:49:29.858Z,105.88
2022-10-31T23:51:59.417Z,103.80
2022-10-31T23:54:26.503Z,100.47
2022-10-31T23:56:54.078Z,110.68
2022-10-31T23:59:22.710Z,117.93
